Time;durP1;ratioP1;P1;durP2;ratioP2;P2;SDS_P1;SDS_P2;PMS_P1;PMS_P2;Temp;Humidity;BMP_temperature;BMP_pressure;BME280_temperature;BME280_humidity;BME280_pressure;Samples;Min_cycle;Max_cycle;Signal;HPM_P1;HPM_P2
2023/08/19 00:02:19;;;;;;;13.10;6.27;;;21.40;99.90;;;;;;5007378;28;20447;-87
2023/08/19 00:04:46;;;;;;;7.17;6.20;;;21.40;99.90;;;;;;5014199;28;20450;-87
2023/08/19 00:07:12;;;;;;;7.37;5.50;;;21.40;99.90;;;;;;5013493;28;20478;-88
2023/08/19 00:09:39;;;;;;;9.10;5.53;;;21.40;99.90;;;;;;5013747;28;20464;-87
2023/08/19 00:12:06;;;;;;;8.53;6.23;;;21.30;99.90;;;;;;5009286;28;20454;-85
2023/08/19 00:14:34;;;;;;;11.93;5.90;;;21.20;99.90;;;;;;5012559;28;21003;-87
2023/08/19 00:17:03;;;;;;;12.00;6.00;;;21.20;99.90;;;;;;5010598;28;20478;-87
2023/08/19 00:19:29;;;;;;;8.67;5.97;;;21.20;99.90;;;;;;4996372;28;20817;-87
2023/08/19 00:21:56;;;;;;;9.33;5.77;;;21.20;99.90;;;;;;5014954;28;20446;-87
2023/08/19 00:24:23;;;;;;;6.37;5.47;;;21.20;99.90;;;;;;5010224;28;20443;-87
2023/08/19 00:26:49;;;;;;;7.70;5.27;;;21.20;99.90;;;;;;5011111;28;20485;-87
2023/08/19 00:29:16;;;;;;;10.80;5.73;;;21.20;99.90;;;;;;5009648;28;20461;-87
2023/08/19 00:31:44;;;;;;;8.53;6.03;;;21.30;99.90;;;;;;5004155;28;20483;-87
2023/08/19 00:34:11;;;;;;;9.30;5.70;;;21.10;99.90;;;;;;5004456;28;20486;-86
2023/08/19 00:36:37;;;;;;;8.63;5.33;;;21.10;99.90;;;;;;5013481;28;20458;-86
2023/08/19 00:39:04;;;;;;;6.23;5.10;;;21.10;99.90;;;;;;5014299;28;20462;-87
2023/08/19 00:41:32;;;;;;;13.90;5.63;;;21.00;99.90;;;;;;5013014;28;20822;-87
2023/08/19 00:43:59;;;;;;;12.07;6.33;;;21.00;99.90;;;;;;5000677;28;20459;-87
2023/08/19 00:46:26;;;;;;;11.03;5.60;;;21.00;99.90;;;;;;5012216;28;20453;-86
2023/08/19 00:48:55;;;;;;;7.37;5.60;;;21.00;99.90;;;;;;5009963;28;20438;-87
2023/08/19 00:51:22;;;;;;;7.53;5.63;;;21.00;99.90;;;;;;5014170;28;20453;-87
2023/08/19 00:53:49;;;;;;;11.00;5.50;;;20.90;99.90;;;;;;4994645;28;20487;-87
2023/08/19 00:56:16;;;;;;;13.30;5.70;;;20.90;99.90;;;;;;5007761;28;20454;-87
2023/08/19 00:58:42;;;;;;;6.47;5.77;;;20.80;99.90;;;;;;5003454;28;21192;-87
2023/08/19 01:01:09;;;;;;;9.40;5.50;;;20.80;99.90;;;;;;4999713;28;20455;-87
2023/08/19 01:03:36;;;;;;;12.67;5.73;;;20.70;99.90;;;;;;4996386;28;20542;-87
2023/08/19 01:06:15;;;;;;;7.50;5.70;;;20.80;99.90;;;;;;4994587;28;20448;-87
2023/08/19 01:08:48;;;;;;;7.67;5.50;;;20.70;99.90;;;;;;5009536;28;20487;-87
2023/08/19 01:11:29;;;;;;;6.77;6.03;;;20.70;99.90;;;;;;5013080;28;20524;-86
2023/08/19 01:14:05;;;;;;;7.37;5.50;;;20.70;99.90;;;;;;5010437;28;20490;-87
2023/08/19 01:16:33;;;;;;;10.80;5.50;;;20.70;99.90;;;;;;5003011;28;20443;-86
2023/08/19 01:19:01;;;;;;;10.67;6.30;;;20.70;99.90;;;;;;5006662;28;20823;-87
2023/08/19 01:21:29;;;;;;;9.10;5.70;;;20.70;99.90;;;;;;5006137;28;20505;-87
2023/08/19 01:23:59;;;;;;;12.33;5.87;;;20.70;99.90;;;;;;5007113;28;20442;-86
2023/08/19 01:26:28;;;;;;;7.60;5.70;;;20.70;99.90;;;;;;4998956;28;20459;-87
2023/08/19 01:28:55;;;;;;;11.37;5.60;;;20.70;99.90;;;;;;5027517;28;20458;-86
2023/08/19 01:31:21;;;;;;;13.80;6.00;;;20.70;99.90;;;;;;5006537;28;20458;-86
2023/08/19 01:33:48;;;;;;;13.20;5.50;;;20.60;99.90;;;;;;5026077;28;20497;-89
2023/08/19 01:36:22;;;;;;;6.03;4.87;;;20.60;99.90;;;;;;5027993;28;20537;-85
2023/08/19 01:38:57;;;;;;;10.90;5.90;;;20.60;99.90;;;;;;5007076;28;20458;-87
2023/08/19 01:41:26;;;;;;;8.97;5.00;;;20.60;99.90;;;;;;5006652;28;20451;-87
2023/08/19 01:43:55;;;;;;;8.50;5.20;;;20.50;99.90;;;;;;5003798;28;20790;-86
2023/08/19 01:46:22;;;;;;;10.73;4.87;;;20.50;99.90;;;;;;5003881;28;20831;-87
2023/08/19 01:48:48;;;;;;;10.20;4.80;;;20.50;99.90;;;;;;5007627;28;21041;-87
2023/08/19 01:51:15;;;;;;;11.37;5.10;;;20.50;99.90;;;;;;5004655;28;20972;-87
2023/08/19 01:53:42;;;;;;;7.00;5.10;;;20.40;99.90;;;;;;5009889;28;21015;-87
2023/08/19 01:56:08;;;;;;;6.30;5.03;;;20.50;99.90;;;;;;5010382;28;20940;-87
2023/08/19 01:58:35;;;;;;;6.03;5.53;;;20.40;99.90;;;;;;5008399;28;20995;-87
2023/08/19 02:01:03;;;;;;;10.40;5.63;;;20.50;99.90;;;;;;5012321;28;20459;-87
2023/08/19 02:03:30;;;;;;;8.93;6.17;;;20.40;99.90;;;;;;5012564;28;20446;-87
2023/08/19 02:05:56;;;;;;;8.87;6.70;;;20.40;99.90;;;;;;5012703;28;20447;-89
2023/08/19 02:08:23;;;;;;;10.97;6.20;;;20.40;99.90;;;;;;5000248;28;20510;-87
2023/08/19 02:10:50;;;;;;;11.07;6.80;;;20.30;99.90;;;;;;5011201;28;20478;-87
2023/08/19 02:13:16;;;;;;;15.03;6.93;;;20.30;99.90;;;;;;5012513;28;20486;-87
2023/08/19 02:15:44;;;;;;;9.47;7.30;;;20.30;99.90;;;;;;5006551;28;20460;-87
2023/08/19 02:18:12;;;;;;;15.93;7.70;;;20.10;99.90;;;;;;5011736;28;20482;-87
2023/08/19 02:20:38;;;;;;;13.27;7.50;;;20.40;99.90;;;;;;5011587;28;20458;-87
2023/08/19 02:23:05;;;;;;;13.50;7.03;;;20.20;99.90;;;;;;4993507;28;20455;-87
2023/08/19 02:25:32;;;;;;;14.30;7.90;;;20.30;99.90;;;;;;5012497;28;20508;-86
2023/08/19 02:27:58;;;;;;;11.23;7.27;;;20.30;99.90;;;;;;5009390;28;20535;-87
2023/08/19 02:30:25;;;;;;;9.97;6.90;;;20.30;99.90;;;;;;5006881;28;20948;-87
2023/08/19 02:32:52;;;;;;;15.03;6.57;;;20.30;99.90;;;;;;5012285;28;20454;-87
2023/08/19 02:35:20;;;;;;;12.53;7.00;;;20.20;99.90;;;;;;5012107;28;20486;-87
2023/08/19 02:37:47;;;;;;;9.40;6.70;;;20.20;99.90;;;;;;5010478;28;20916;-86
2023/08/19 02:40:13;;;;;;;9.83;6.00;;;20.20;99.90;;;;;;5011425;28;20885;-87
2023/08/19 02:42:40;;;;;;;8.77;6.40;;;20.20;99.90;;;;;;5003303;28;20458;-87
2023/08/19 02:45:08;;;;;;;13.17;6.40;;;20.10;99.90;;;;;;5012241;28;20816;-87
2023/08/19 02:47:34;;;;;;;9.10;6.60;;;20.10;99.90;;;;;;5006388;28;20487;-88
2023/08/19 02:50:01;;;;;;;13.10;6.67;;;20.10;99.90;;;;;;5003955;28;20442;-87
2023/08/19 02:52:29;;;;;;;16.27;7.37;;;20.10;99.90;;;;;;5007590;28;20489;-88
2023/08/19 02:54:56;;;;;;;13.00;6.17;;;20.10;99.90;;;;;;5003532;28;20501;-87
2023/08/19 02:57:22;;;;;;;13.80;7.10;;;20.00;99.90;;;;;;5004940;28;20482;-87
2023/08/19 02:59:49;;;;;;;10.97;6.50;;;20.00;99.90;;;;;;4992047;28;20451;-87
2023/08/19 03:02:16;;;;;;;14.47;6.00;;;20.00;99.90;;;;;;5005790;28;20463;-86
2023/08/19 03:04:42;;;;;;;15.03;6.53;;;20.00;99.90;;;;;;5011526;28;20458;-87
2023/08/19 03:07:09;;;;;;;7.90;6.53;;;20.00;99.90;;;;;;5011463;28;20462;-86
2023/08/19 03:09:37;;;;;;;7.93;6.03;;;19.90;99.90;;;;;;5011433;28;20466;-86
2023/08/19 03:12:04;;;;;;;11.10;7.00;;;19.90;99.90;;;;;;5011602;28;20504;-87
2023/08/19 03:14:31;;;;;;;7.83;6.90;;;19.80;99.90;;;;;;5011090;28;20498;-87
2023/08/19 03:16:58;;;;;;;9.47;6.70;;;19.90;99.90;;;;;;5003557;28;20466;-86
2023/08/19 03:19:24;;;;;;;18.60;7.10;;;19.80;99.90;;;;;;5011434;28;20458;-87
2023/08/19 03:21:51;;;;;;;9.23;6.53;;;19.80;99.90;;;;;;5011125;28;20785;-87
2023/08/19 03:24:18;;;;;;;18.00;7.50;;;19.80;99.90;;;;;;5003041;28;20466;-87
2023/08/19 03:26:46;;;;;;;10.93;7.03;;;19.80;99.90;;;;;;5012103;28;20492;-87
2023/08/19 03:29:13;;;;;;;12.63;6.70;;;19.80;99.90;;;;;;5015594;28;20516;-87
2023/08/19 03:31:40;;;;;;;9.83;5.90;;;19.90;99.90;;;;;;5014644;28;20462;-86
2023/08/19 03:34:06;;;;;;;6.90;5.73;;;19.70;99.90;;;;;;5011084;28;20487;-87
2023/08/19 03:36:33;;;;;;;8.13;5.83;;;19.60;99.90;;;;;;5010983;28;20465;-87
2023/08/19 03:39:00;;;;;;;15.30;6.73;;;19.50;99.90;;;;;;4996699;28;20447;-86
2023/08/19 03:41:26;;;;;;;8.77;6.13;;;19.60;99.90;;;;;;5002119;28;20741;-87
2023/08/19 03:43:54;;;;;;;10.33;6.30;;;19.50;99.90;;;;;;5012167;28;20512;-87
2023/08/19 03:46:21;;;;;;;8.50;5.83;;;19.50;99.90;;;;;;5012139;28;20493;-88
2023/08/19 03:48:47;;;;;;;7.50;6.70;;;19.40;99.90;;;;;;5009678;28;20502;-87
2023/08/19 03:51:14;;;;;;;11.40;6.90;;;19.40;99.90;;;;;;5015299;28;20450;-87
2023/08/19 03:53:41;;;;;;;16.53;6.60;;;19.40;99.90;;;;;;5014257;28;20492;-86
2023/08/19 03:56:07;;;;;;;8.63;7.20;;;19.30;99.90;;;;;;5015156;28;20462;-87
2023/08/19 03:58:33;;;;;;;9.80;6.73;;;19.40;99.90;;;;;;5000439;28;20537;-87
2023/08/19 04:01:06;;;;;;;9.37;7.03;;;19.40;99.90;;;;;;5014012;28;20454;-87
2023/08/19 04:03:33;;;;;;;12.10;7.50;;;19.30;99.90;;;;;;5014357;28;20270;-87
2023/08/19 04:06:00;;;;;;;8.27;7.27;;;19.40;99.90;;;;;;5012784;28;20530;-87
2023/08/19 04:08:27;;;;;;;14.73;8.00;;;19.40;99.90;;;;;;5007011;28;21067;-87
2023/08/19 04:10:54;;;;;;;13.23;7.80;;;19.40;99.90;;;;;;5013093;28;20446;-87
2023/08/19 04:13:20;;;;;;;21.23;8.00;;;19.40;99.90;;;;;;5009069;28;20470;-87
2023/08/19 04:15:47;;;;;;;15.23;8.13;;;19.50;99.90;;;;;;5004528;28;20486;-87
2023/08/19 04:18:15;;;;;;;9.27;7.50;;;19.40;99.90;;;;;;5006316;28;20488;-87
2023/08/19 04:20:42;;;;;;;14.90;8.43;;;19.40;99.90;;;;;;5014513;28;20496;-86
2023/08/19 04:23:08;;;;;;;20.43;8.57;;;19.60;99.90;;;;;;5009966;28;20451;-87
2023/08/19 04:25:35;;;;;;;8.13;7.33;;;19.60;99.90;;;;;;5002017;28;20450;-87
2023/08/19 04:28:02;;;;;;;14.00;8.40;;;19.60;99.90;;;;;;4999895;28;20475;-84
2023/08/19 04:30:29;;;;;;;12.57;7.97;;;19.60;99.90;;;;;;5011405;28;20501;-87
2023/08/19 04:32:58;;;;;;;16.27;8.30;;;19.60;99.90;;;;;;5013559;28;20446;-87
2023/08/19 04:35:28;;;;;;;9.57;7.57;;;19.60;99.90;;;;;;5006231;28;20486;-87
2023/08/19 04:37:55;;;;;;;11.27;7.57;;;19.60;99.90;;;;;;5018298;28;20470;-87
2023/08/19 04:40:21;;;;;;;13.80;7.60;;;19.70;99.90;;;;;;5035230;28;20446;-87
2023/08/19 04:42:48;;;;;;;15.10;7.97;;;19.70;99.90;;;;;;5018721;28;20463;-87
2023/08/19 04:45:16;;;;;;;13.83;7.90;;;19.80;99.90;;;;;;5014324;28;20525;-87
2023/08/19 04:47:42;;;;;;;12.40;7.23;;;19.80;99.90;;;;;;5008483;28;20470;-87
2023/08/19 04:50:10;;;;;;;19.13;8.30;;;19.80;99.90;;;;;;5004742;28;20533;-86
2023/08/19 04:52:38;;;;;;;15.70;7.70;;;19.80;99.90;;;;;;5013012;28;20952;-87
2023/08/19 04:55:06;;;;;;;13.50;7.70;;;19.80;99.90;;;;;;5014012;28;20966;-88
2023/08/19 04:57:32;;;;;;;10.17;7.03;;;19.80;99.90;;;;;;5013553;28;20478;-89
2023/08/19 04:59:59;;;;;;;11.13;7.13;;;19.90;99.90;;;;;;5013110;28;20855;-89
2023/08/19 05:02:26;;;;;;;11.23;6.27;;;19.90;99.90;;;;;;5009516;28;20485;-90
2023/08/19 05:04:53;;;;;;;9.07;7.00;;;20.00;99.90;;;;;;5005095;28;20825;-89
2023/08/19 05:07:19;;;;;;;13.00;7.00;;;20.10;99.90;;;;;;5007209;28;20533;-90
2023/08/19 05:09:47;;;;;;;8.90;6.60;;;20.10;99.90;;;;;;5015882;28;20512;-89
2023/08/19 05:12:14;;;;;;;11.53;6.83;;;20.30;99.90;;;;;;5004323;28;20945;-91
2023/08/19 05:14:41;;;;;;;12.20;7.30;;;20.40;99.90;;;;;;5007477;28;20482;-90
2023/08/19 05:17:08;;;;;;;11.13;7.07;;;20.50;99.90;;;;;;5004806;28;20476;-90
2023/08/19 05:19:36;;;;;;;9.20;7.40;;;20.50;99.90;;;;;;5010632;28;21229;-90
2023/08/19 05:22:03;;;;;;;11.07;6.63;;;20.60;99.90;;;;;;5007867;28;20528;-90
2023/08/19 05:24:29;;;;;;;15.70;7.43;;;20.60;99.90;;;;;;5012690;28;20455;-90
2023/08/19 05:26:57;;;;;;;9.80;6.63;;;20.70;99.90;;;;;;5005779;28;20475;-90
2023/08/19 05:29:24;;;;;;;14.60;6.53;;;20.80;99.90;;;;;;5008168;28;20435;-91
2023/08/19 05:31:50;;;;;;;7.50;6.13;;;21.10;99.90;;;;;;5005611;28;20471;-90
2023/08/19 05:34:17;;;;;;;10.03;6.63;;;21.10;99.90;;;;;;5007975;28;20486;-89
2023/08/19 05:36:44;;;;;;;13.03;6.80;;;21.10;99.90;;;;;;5013262;28;20443;-89
2023/08/19 05:39:11;;;;;;;11.90;6.53;;;21.20;99.90;;;;;;5015270;28;20443;-88
2023/08/19 05:41:37;;;;;;;7.73;6.37;;;21.30;99.90;;;;;;5015101;28;20470;-89
2023/08/19 05:44:06;;;;;;;11.23;7.07;;;21.30;99.90;;;;;;5015109;28;20489;-90
2023/08/19 05:46:33;;;;;;;13.83;6.77;;;21.40;99.90;;;;;;5014058;28;20490;-88
2023/08/19 05:49:00;;;;;;;6.73;6.03;;;21.40;99.90;;;;;;5013331;28;20459;-89
2023/08/19 05:51:27;;;;;;;17.80;6.70;;;21.40;99.90;;;;;;5018739;28;20497;-89
2023/08/19 05:53:55;;;;;;;11.37;6.43;;;21.50;99.90;;;;;;5015394;28;20458;-89
2023/08/19 05:56:21;;;;;;;11.00;6.30;;;21.60;99.90;;;;;;5015055;28;20498;-89
2023/08/19 05:58:48;;;;;;;10.70;6.17;;;21.90;99.90;;;;;;5022467;28;20470;-88
2023/08/19 06:01:16;;;;;;;9.70;6.10;;;22.20;99.90;;;;;;5018469;28;20689;-89
2023/08/19 06:03:43;;;;;;;23.93;6.53;;;22.60;99.90;;;;;;5016918;28;20463;-86
2023/08/19 06:06:10;;;;;;;17.20;6.00;;;23.10;99.90;;;;;;5013191;28;20469;-89
2023/08/19 06:08:37;;;;;;;11.13;6.13;;;23.20;99.90;;;;;;5012578;28;20474;-89
2023/08/19 06:11:06;;;;;;;6.80;5.83;;;23.10;99.90;;;;;;5012211;28;20550;-91
2023/08/19 06:13:34;;;;;;;10.80;6.33;;;23.20;99.90;;;;;;5010029;28;20463;-88
2023/08/19 06:16:03;;;;;;;10.10;5.97;;;23.40;99.90;;;;;;5003612;28;20481;-90
2023/08/19 06:18:31;;;;;;;7.63;5.73;;;23.70;99.90;;;;;;5020870;28;20999;-91
2023/08/19 06:20:58;;;;;;;8.87;5.87;;;23.80;99.90;;;;;;5004902;28;20455;-91
2023/08/19 06:23:26;;;;;;;13.07;5.60;;;23.50;99.90;;;;;;5009706;28;20839;-89
2023/08/19 06:25:54;;;;;;;12.67;5.90;;;23.40;99.90;;;;;;5019186;28;20453;-92
2023/08/19 06:28:21;;;;;;;7.77;5.60;;;23.20;99.90;;;;;;5026646;28;20474;-90
2023/08/19 06:30:49;;;;;;;6.10;5.50;;;23.10;99.90;;;;;;5013786;28;20893;-88
2023/08/19 06:33:17;;;;;;;11.30;5.40;;;23.00;99.90;;;;;;5006402;28;20944;-88
2023/08/19 06:35:48;;;;;;;8.87;5.77;;;23.00;99.90;;;;;;5007975;28;20490;-89
2023/08/19 06:38:16;;;;;;;11.30;6.30;;;23.00;99.90;;;;;;5007476;28;20507;-90
2023/08/19 06:40:54;;;;;;;7.67;5.50;;;23.20;99.90;;;;;;5005324;28;20845;-89
2023/08/19 06:43:22;;;;;;;8.10;6.00;;;23.60;99.90;;;;;;5001282;28;20463;-88
2023/08/19 06:45:49;;;;;;;9.47;5.70;;;24.20;99.90;;;;;;5010031;28;20460;-88
2023/08/19 06:48:17;;;;;;;13.03;5.77;;;24.70;99.90;;;;;;5003801;28;20482;-88
2023/08/19 06:50:47;;;;;;;14.60;5.40;;;25.10;99.90;;;;;;5007232;28;20512;-89
2023/08/19 06:53:14;;;;;;;6.60;5.97;;;25.30;99.90;;;;;;5014847;28;20516;-89
2023/08/19 06:55:42;;;;;;;7.67;5.30;;;25.30;99.90;;;;;;5016415;28;20482;-89
2023/08/19 06:58:17;;;;;;;8.60;5.27;;;25.40;99.90;;;;;;5007306;28;20532;-89
2023/08/19 07:00:47;;;;;;;15.83;4.83;;;25.60;99.90;;;;;;5007494;28;20490;-88
2023/08/19 07:03:15;;;;;;;12.60;5.30;;;25.90;99.90;;;;;;5002880;28;20450;-90
2023/08/19 07:05:43;;;;;;;7.70;4.63;;;26.20;99.90;;;;;;5011563;28;20823;-89
2023/08/19 07:08:13;;;;;;;11.73;4.60;;;26.30;99.90;;;;;;5005085;28;20530;-88
2023/08/19 07:10:40;;;;;;;4.50;4.10;;;26.50;99.90;;;;;;5005642;28;20451;-88
2023/08/19 07:13:08;;;;;;;5.83;4.13;;;26.40;99.90;;;;;;4996701;28;20459;-87
2023/08/19 07:15:35;;;;;;;4.37;3.97;;;26.10;99.90;;;;;;5001576;28;20540;-87
2023/08/19 07:18:03;;;;;;;6.43;4.83;;;26.20;99.90;;;;;;4998463;28;20527;-90
2023/08/19 07:20:30;;;;;;;9.43;4.50;;;26.10;99.90;;;;;;5002569;28;20853;-89
2023/08/19 07:22:59;;;;;;;8.73;4.50;;;26.10;99.90;;;;;;4997057;28;20467;-89
2023/08/19 07:25:28;;;;;;;5.87;4.67;;;26.00;99.90;;;;;;5007379;28;20450;-88
2023/08/19 07:27:55;;;;;;;5.27;4.63;;;25.80;99.90;;;;;;5005701;28;20467;-88
2023/08/19 07:30:23;;;;;;;6.80;4.67;;;25.60;99.90;;;;;;5002365;28;20451;-87
2023/08/19 07:32:50;;;;;;;5.37;4.87;;;25.40;99.90;;;;;;5009701;28;20438;-87
2023/08/19 07:35:17;;;;;;;5.47;4.90;;;25.30;99.90;;;;;;5003772;28;20513;-87
2023/08/19 07:37:43;;;;;;;8.33;5.50;;;25.10;99.90;;;;;;5000254;28;20862;-88
2023/08/19 07:40:12;;;;;;;10.10;4.90;;;25.10;99.90;;;;;;4998869;28;20513;-87
2023/08/19 07:42:40;;;;;;;4.90;4.40;;;25.20;99.90;;;;;;5015928;28;20734;-91
2023/08/19 07:45:07;;;;;;;5.87;4.27;;;25.30;99.90;;;;;;5024075;28;20436;-92
2023/08/19 07:49:15;;;;;;;5.57;4.70;;;25.70;99.90;;;;;;5070366;27;20579;-76
2023/08/19 07:51:42;;;;;;;7.23;4.50;;;25.80;99.90;;;;;;5060784;28;20878;-77
2023/08/19 07:54:09;;;;;;;7.23;4.40;;;25.80;99.90;;;;;;5060384;28;20460;-76
2023/08/19 07:56:35;;;;;;;6.97;4.33;;;25.70;99.90;;;;;;5066405;28;20452;-77
2023/08/19 07:59:03;;;;;;;6.03;4.57;;;25.70;99.90;;;;;;5066293;28;21178;-77
2023/08/19 08:01:29;;;;;;;5.90;4.73;;;25.90;99.90;;;;;;5066877;28;20456;-77
2023/08/19 08:03:56;;;;;;;6.23;4.50;;;26.30;99.90;;;;;;5066850;28;20910;-78
2023/08/19 08:06:24;;;;;;;11.70;5.10;;;26.70;99.90;;;;;;5066602;28;20455;-77
2023/08/19 08:08:51;;;;;;;5.23;4.70;;;27.20;99.90;;;;;;5068465;28;20487;-78
2023/08/19 08:11:17;;;;;;;5.80;5.20;;;27.50;99.90;;;;;;5067604;28;20509;-79
2023/08/19 08:13:44;;;;;;;8.70;4.20;;;27.70;99.90;;;;;;5063826;28;20506;-77
2023/08/19 08:16:11;;;;;;;5.00;3.57;;;27.80;99.90;;;;;;5059782;28;21119;-75
2023/08/19 08:18:38;;;;;;;6.10;4.27;;;27.90;99.90;;;;;;5059136;28;20838;-77
2023/08/19 08:21:05;;;;;;;5.97;4.40;;;27.90;99.90;;;;;;5066997;28;20459;-77
2023/08/19 08:23:33;;;;;;;8.77;4.37;;;27.90;99.90;;;;;;5066039;28;20517;-80
2023/08/19 08:26:00;;;;;;;8.97;4.33;;;28.00;99.90;;;;;;5060186;28;20460;-79
2023/08/19 08:28:27;;;;;;;8.67;4.67;;;27.80;99.90;;;;;;5067175;28;20491;-81
2023/08/19 08:30:54;;;;;;;6.80;4.37;;;27.90;99.90;;;;;;5067481;28;20456;-78
2023/08/19 08:33:20;;;;;;;4.70;4.20;;;27.90;99.90;;;;;;5064438;28;20455;-77
2023/08/19 08:35:47;;;;;;;4.60;4.10;;;27.90;99.90;;;;;;5054804;28;20460;-72
2023/08/19 08:38:14;;;;;;;6.13;4.53;;;28.10;99.90;;;;;;5056112;28;20476;-73
2023/08/19 08:40:42;;;;;;;6.07;4.73;;;28.30;99.90;;;;;;5058269;28;20532;-72
2023/08/19 08:43:09;;;;;;;5.03;4.00;;;28.30;99.90;;;;;;5066623;28;20521;-73
2023/08/19 08:45:37;;;;;;;8.93;4.50;;;28.40;99.90;;;;;;5065782;28;20447;-73
2023/08/19 08:48:04;;;;;;;8.50;4.20;;;28.40;99.90;;;;;;5065211;28;20549;-73
2023/08/19 08:50:31;;;;;;;10.13;4.77;;;28.60;99.90;;;;;;5064292;28;20550;-75
2023/08/19 08:52:58;;;;;;;6.00;4.20;;;28.80;99.90;;;;;;5063214;28;20460;-76
2023/08/19 08:55:25;;;;;;;5.60;4.20;;;28.70;99.90;;;;;;5050394;28;21046;-76
2023/08/19 08:57:53;;;;;;;7.60;4.13;;;28.80;99.90;;;;;;5060250;28;20530;-75
2023/08/19 09:00:20;;;;;;;10.00;4.13;;;28.80;99.90;;;;;;5043511;28;20457;-76
2023/08/19 09:02:48;;;;;;;6.90;4.50;;;28.60;99.90;;;;;;5045953;28;20499;-76
2023/08/19 09:05:16;;;;;;;6.00;4.50;;;28.50;99.90;;;;;;5042579;28;20486;-76
2023/08/19 09:07:47;;;;;;;5.60;4.30;;;28.70;99.90;;;;;;5052310;28;20490;-77
2023/08/19 09:10:14;;;;;;;9.20;4.43;;;29.10;99.90;;;;;;5052668;28;20495;-76
2023/08/19 09:12:44;;;;;;;7.50;4.17;;;29.30;99.90;;;;;;5047570;28;20515;-77
2023/08/19 09:15:14;;;;;;;4.23;3.90;;;29.60;99.90;;;;;;5040147;28;20527;-78
2023/08/19 09:17:42;;;;;;;4.33;3.93;;;30.00;99.90;;;;;;5032447;28;20446;-77
2023/08/19 09:20:09;;;;;;;5.37;4.23;;;29.90;99.90;;;;;;5044322;28;20460;-78
2023/08/19 09:22:38;;;;;;;5.40;4.60;;;29.50;99.90;;;;;;5041182;28;20462;-78
2023/08/19 09:25:07;;;;;;;12.53;4.67;;;29.50;99.90;;;;;;5044659;28;20943;-78
2023/08/19 09:27:33;;;;;;;7.47;4.50;;;29.30;99.90;;;;;;5039807;28;20502;-78
2023/08/19 09:30:00;;;;;;;6.57;4.70;;;29.00;99.90;;;;;;5038931;28;20538;-78
2023/08/19 09:32:29;;;;;;;8.90;5.13;;;29.00;99.90;;;;;;5049453;28;20511;-76
2023/08/19 09:35:04;;;;;;;7.60;4.30;;;29.40;99.90;;;;;;5059793;28;20447;-79
2023/08/19 09:37:31;;;;;;;5.50;4.80;;;29.60;99.90;;;;;;5065937;28;20201;-77
2023/08/19 09:39:57;;;;;;;7.70;4.40;;;29.60;99.90;;;;;;5041239;28;20908;-75
2023/08/19 09:42:24;;;;;;;5.33;4.50;;;29.30;99.90;;;;;;5039824;28;20468;-76
2023/08/19 09:44:51;;;;;;;5.37;4.40;;;29.30;99.90;;;;;;5044818;28;20514;-76
2023/08/19 09:47:19;;;;;;;6.50;4.00;;;29.30;99.90;;;;;;5063259;28;20474;-78
2023/08/19 09:49:50;;;;;;;5.13;4.37;;;29.30;99.90;;;;;;5060115;28;20296;-77
2023/08/19 09:52:17;;;;;;;10.33;4.40;;;29.50;99.90;;;;;;5060018;28;20460;-77
2023/08/19 09:54:51;;;;;;;4.87;4.40;;;29.50;99.90;;;;;;5056852;28;20444;-78
2023/08/19 09:57:18;;;;;;;7.13;4.53;;;29.50;99.90;;;;;;5058006;28;20475;-77
2023/08/19 09:59:45;;;;;;;8.03;4.77;;;29.40;99.90;;;;;;5056218;28;20551;-75
2023/08/19 10:02:13;;;;;;;4.93;3.97;;;29.30;99.90;;;;;;5050203;28;20877;-76
2023/08/19 10:04:40;;;;;;;6.40;4.47;;;29.10;99.90;;;;;;5047633;28;20503;-76
2023/08/19 10:07:10;;;;;;;9.63;4.00;;;29.00;99.90;;;;;;5042887;28;20959;-75
2023/08/19 10:09:40;;;;;;;6.10;3.93;;;29.00;99.90;;;;;;5036101;28;20485;-76
2023/08/19 10:12:09;;;;;;;11.30;4.03;;;29.00;99.90;;;;;;5040852;28;20452;-76
2023/08/19 10:14:38;;;;;;;9.73;3.83;;;29.00;99.90;;;;;;5050950;28;20460;-76
2023/08/19 10:17:07;;;;;;;5.10;4.30;;;29.10;99.90;;;;;;5051012;28;20456;-76
2023/08/19 10:19:40;;;;;;;4.77;4.27;;;29.20;99.90;;;;;;5035009;28;20980;-76
2023/08/19 10:22:11;;;;;;;6.17;4.87;;;29.20;99.90;;;;;;5041368;28;20464;-76
2023/08/19 10:24:39;;;;;;;10.50;4.80;;;29.10;99.90;;;;;;5048800;28;20456;-76
2023/08/19 10:27:06;;;;;;;8.37;4.23;;;29.20;99.90;;;;;;5046646;28;20468;-76
2023/08/19 10:29:32;;;;;;;8.30;4.33;;;29.10;99.90;;;;;;5039941;28;20547;-75
2023/08/19 10:32:28;;;;;;;6.47;4.53;;;29.10;99.90;;;;;;5043673;28;20514;-75
2023/08/19 10:35:04;;;;;;;5.90;4.87;;;29.10;99.90;;;;;;5043189;28;20452;-75
2023/08/19 10:37:33;;;;;;;4.53;4.10;;;29.10;99.90;;;;;;5048465;28;20451;-76
2023/08/19 10:40:08;;;;;;;13.80;4.73;;;29.10;99.90;;;;;;5045291;28;20530;-75
2023/08/19 10:42:35;;;;;;;7.40;4.80;;;29.10;99.90;;;;;;5041892;28;20452;-75
2023/08/19 10:45:02;;;;;;;9.33;4.87;;;29.10;99.90;;;;;;5037312;28;20481;-68
2023/08/19 10:47:29;;;;;;;5.47;4.35;;;28.90;99.90;;;;;;5038320;28;20688;-74
2023/08/19 10:50:01;;;;;;;4.90;3.80;;;28.80;99.90;;;;;;5042955;28;20256;-75
2023/08/19 10:52:29;;;;;;;8.03;4.63;;;28.80;99.90;;;;;;5045140;28;20801;-75
2023/08/19 10:54:59;;;;;;;11.17;4.60;;;28.70;99.90;;;;;;5036814;28;20946;-74
2023/08/19 10:57:27;;;;;;;7.00;4.37;;;28.70;99.90;;;;;;5049739;28;20449;-75
2023/08/19 10:59:56;;;;;;;6.70;4.57;;;28.80;99.90;;;;;;5050631;28;20571;-75
2023/08/19 11:02:23;;;;;;;5.27;4.67;;;29.00;99.90;;;;;;5037918;28;20893;-75
2023/08/19 11:04:51;;;;;;;9.83;4.30;;;29.10;99.90;;;;;;5044968;28;20487;-75
2023/08/19 11:07:18;;;;;;;10.63;4.10;;;29.20;99.90;;;;;;5049145;28;20472;-75
2023/08/19 11:09:47;;;;;;;8.33;4.53;;;29.20;99.90;;;;;;5038749;28;20516;-75
2023/08/19 11:12:17;;;;;;;8.10;4.97;;;29.10;99.90;;;;;;5043907;28;20507;-75
2023/08/19 11:14:47;;;;;;;8.43;5.17;;;29.10;99.90;;;;;;5039726;28;20450;-75
2023/08/19 11:17:13;;;;;;;6.10;4.47;;;29.20;99.90;;;;;;5041594;28;20539;-75
2023/08/19 11:19:40;;;;;;;7.10;4.67;;;29.30;99.90;;;;;;5043670;28;20468;-75
2023/08/19 11:22:07;;;;;;;17.50;5.47;;;29.40;99.90;;;;;;5043684;28;20456;-74
2023/08/19 11:24:36;;;;;;;8.80;4.63;;;29.50;99.90;;;;;;5038126;28;20507;-74
2023/08/19 11:27:03;;;;;;;5.33;4.80;;;29.60;99.90;;;;;;5041315;28;20241;-75
2023/08/19 11:29:31;;;;;;;6.13;4.90;;;29.60;99.90;;;;;;5036404;28;20503;-76
2023/08/19 11:31:59;;;;;;;8.27;4.73;;;29.70;99.90;;;;;;5044554;28;20486;-76
2023/08/19 11:34:28;;;;;;;6.00;5.00;;;29.90;99.90;;;;;;5040788;28;20505;-76
2023/08/19 11:36:55;;;;;;;8.40;4.40;;;30.10;99.90;;;;;;5047996;28;20979;-76
2023/08/19 11:39:22;;;;;;;6.60;4.60;;;30.30;99.90;;;;;;5048834;28;20979;-75
2023/08/19 11:41:49;;;;;;;5.47;4.83;;;30.40;99.90;;;;;;5039583;28;20454;-76
2023/08/19 11:44:15;;;;;;;7.10;5.03;;;30.30;99.90;;;;;;5042461;28;20953;-76
2023/08/19 11:46:43;;;;;;;7.10;4.87;;;30.30;99.90;;;;;;5038842;28;20790;-76
2023/08/19 11:49:11;;;;;;;10.57;4.80;;;30.30;99.90;;;;;;5039346;28;20492;-76
2023/08/19 11:51:38;;;;;;;17.53;5.00;;;30.10;99.90;;;;;;5046443;28;20453;-75
2023/08/19 11:54:07;;;;;;;8.03;4.87;;;30.10;99.90;;;;;;5041154;28;20460;-76
2023/08/19 11:56:48;;;;;;;13.37;6.10;;;30.00;99.90;;;;;;5049859;28;20453;-76
2023/08/19 11:59:15;;;;;;;5.47;4.43;;;29.90;99.90;;;;;;5050414;28;21061;-76
2023/08/19 12:01:45;;;;;;;14.47;5.60;;;29.90;99.90;;;;;;5047860;28;20528;-76
2023/08/19 12:04:15;;;;;;;7.47;4.47;;;29.80;99.90;;;;;;5042810;28;20448;-77
2023/08/19 12:06:42;;;;;;;11.37;5.50;;;29.80;99.90;;;;;;5041614;28;20548;-76
2023/08/19 12:09:09;;;;;;;11.60;5.10;;;29.70;99.90;;;;;;5038331;28;20497;-76
2023/08/19 12:11:36;;;;;;;9.43;4.83;;;29.70;99.90;;;;;;5046466;28;20537;-76
2023/08/19 12:14:03;;;;;;;13.50;4.90;;;29.70;99.90;;;;;;5044317;28;20560;-77
2023/08/19 12:16:30;;;;;;;10.23;5.57;;;29.70;99.90;;;;;;5043863;28;20464;-77
2023/08/19 12:18:58;;;;;;;6.20;5.00;;;29.60;99.90;;;;;;5042936;28;20534;-76
2023/08/19 12:21:25;;;;;;;8.80;5.17;;;29.60;99.90;;;;;;5040028;28;21080;-77
2023/08/19 12:23:52;;;;;;;8.90;5.60;;;29.50;99.90;;;;;;5040368;28;20457;-78
2023/08/19 12:26:19;;;;;;;5.80;4.60;;;29.50;99.90;;;;;;5046749;28;20491;-77
2023/08/19 12:28:46;;;;;;;7.53;5.33;;;29.60;99.90;;;;;;5046646;28;20489;-78
2023/08/19 12:31:12;;;;;;;5.80;4.53;;;29.60;99.90;;;;;;5052704;28;20460;-77
2023/08/19 12:33:39;;;;;;;8.37;5.57;;;29.60;99.90;;;;;;5043673;28;20453;-77
2023/08/19 12:36:08;;;;;;;9.00;5.70;;;29.50;99.90;;;;;;5055914;28;20474;-76
2023/08/19 12:38:34;;;;;;;9.20;5.70;;;29.60;99.90;;;;;;5040900;28;20508;-77
2023/08/19 12:41:02;;;;;;;7.27;4.90;;;29.60;99.90;;;;;;5046107;28;20452;-77
2023/08/19 12:43:28;;;;;;;6.27;4.73;;;29.70;99.90;;;;;;5051456;28;21019;-78
2023/08/19 12:45:55;;;;;;;10.60;5.60;;;29.70;99.90;;;;;;5043505;28;20462;-77
2023/08/19 12:48:22;;;;;;;7.13;4.90;;;29.80;99.90;;;;;;5052486;28;20469;-79